Opasatika, Canada
Current Conditions -  °F | °C
As of 12:00 AM on Friday 31 Oct 2014 (Local Time) from CYYU Reporting Station
Light Snow Light Snow  
Wind Chill: 21°   Ceiling: 1500
Heat Index: 27°   Visibility: 4mi
Dew Point: 27°   Wind: 5mph
Humidity: 100%   Direction: 30°NNE
Pressure: 30.11"   Gusts: NA
Location:  49.53°N, 82.87°W
Report Text: CYYU 310400Z 03004KT 4SM -SN SCT006 OVC015 M03/M03 A3011 RMK SF4SC4 CIG RAG VIS VRB 3-5 SLP209
Loading
Personal Weather Stations






























Interactive Weather Map
Tropical Storm Tracking
New forecast layout! Learn more

10-Day Weather Forecast

Advertisements
Track Severe Weather on mobile